createdAt,value
2023-01-08T00:01:08.738Z,2.43
2023-01-08T00:03:37.529Z,1.80
2023-01-08T00:06:07.419Z,2.33
2023-01-08T00:08:35.781Z,2.47
2023-01-08T00:11:03.888Z,2.00
2023-01-08T00:13:33.296Z,2.27
2023-01-08T00:16:05.445Z,2.60
2023-01-08T00:18:33.579Z,2.43
2023-01-08T00:21:01.960Z,2.13
2023-01-08T00:23:30.109Z,2.47
2023-01-08T00:25:58.207Z,2.13
2023-01-08T00:28:26.307Z,2.10
2023-01-08T00:30:55.870Z,1.97
2023-01-08T00:33:24.076Z,2.47
2023-01-08T00:35:52.281Z,2.33
2023-01-08T00:38:20.311Z,2.40
2023-01-08T00:40:49.856Z,2.33
2023-01-08T00:43:17.921Z,2.27
2023-01-08T00:45:46.048Z,2.30
2023-01-08T00:48:15.485Z,2.07
2023-01-08T01:02:17.096Z,2.03
2023-01-08T01:04:46.545Z,1.97
2023-01-08T01:07:14.605Z,2.20
2023-01-08T01:09:42.695Z,2.23
2023-01-08T01:12:10.813Z,1.97
2023-01-08T01:14:39.451Z,2.40
2023-01-08T01:17:07.659Z,2.10
2023-01-08T01:19:35.677Z,2.43
2023-01-08T01:22:05.428Z,2.70
2023-01-08T01:24:33.828Z,2.43
2023-01-08T01:27:01.924Z,2.27
2023-01-08T01:29:30.154Z,2.10
2023-01-08T01:31:58.196Z,2.90
2023-01-08T01:34:26.253Z,1.80
2023-01-08T01:36:54.307Z,2.40
2023-01-08T01:39:23.739Z,2.47
2023-01-08T01:41:53.299Z,1.90
2023-01-08T01:44:40.434Z,2.23
2023-01-08T01:47:17.004Z,2.00
2023-01-08T01:49:50.914Z,1.83
2023-01-08T01:52:20.815Z,2.10
2023-01-08T01:54:50.748Z,2.60
2023-01-08T01:57:18.919Z,2.20
2023-01-08T01:59:49.501Z,1.80
2023-01-08T02:02:17.711Z,2.50
2023-01-08T02:04:45.906Z,2.30
2023-01-08T02:07:21.507Z,2.10
2023-01-08T02:09:56.841Z,2.20
2023-01-08T02:12:31.548Z,2.30
2023-01-08T02:15:12.505Z,1.87
2023-01-08T02:17:46.708Z,1.90
2023-01-08T02:20:19.867Z,2.30
2023-01-08T02:22:57.056Z,1.83
2023-01-08T02:25:37.090Z,1.67
2023-01-08T02:28:11.732Z,1.93
2023-01-08T02:30:40.277Z,2.07
2023-01-08T02:33:08.355Z,2.17
2023-01-08T02:35:41.432Z,1.93
2023-01-08T02:38:12.652Z,1.80
2023-01-08T02:40:51.982Z,1.83
2023-01-08T02:43:27.390Z,1.20
2023-01-08T02:46:01.722Z,1.20
2023-01-08T02:48:34.792Z,1.50
2023-01-08T02:51:07.361Z,0.73
2023-01-08T02:53:38.804Z,2.00
2023-01-08T02:56:10.693Z,0.60
2023-01-08T02:58:42.138Z,0.90
2023-01-08T03:06:31.958Z,0.70
2023-01-08T03:09:01.293Z,1.10
2023-01-08T03:11:33.974Z,0.83
2023-01-08T03:14:07.847Z,0.53
2023-01-08T03:16:40.230Z,0.87
2023-01-08T03:19:13.235Z,0.70
2023-01-08T03:21:44.182Z,0.90
2023-01-08T03:24:15.858Z,1.07
2023-01-08T03:26:46.583Z,0.90
2023-01-08T03:29:21.059Z,1.23
2023-01-08T03:31:50.419Z,0.67
2023-01-08T03:34:20.765Z,1.07
2023-01-08T03:36:51.678Z,1.10
2023-01-08T03:39:24.453Z,0.87
2023-01-08T03:41:55.628Z,1.13
2023-01-08T03:44:25.179Z,1.23
2023-01-08T03:46:56.346Z,1.17
2023-01-08T03:49:26.614Z,1.60
2023-01-08T03:51:54.643Z,1.47
2023-01-08T03:54:26.540Z,1.23
2023-01-08T03:56:54.566Z,0.90
2023-01-08T03:59:24.041Z,2.10
2023-01-08T04:01:52.319Z,1.73
2023-01-08T04:04:20.493Z,1.80
2023-01-08T04:06:48.645Z,1.87
2023-01-08T04:09:16.672Z,1.93
2023-01-08T04:11:44.744Z,2.03
2023-01-08T04:14:12.811Z,1.90
2023-01-08T04:16:42.247Z,1.73
2023-01-08T04:19:12.123Z,1.40
2023-01-08T04:21:40.314Z,2.33
2023-01-08T04:24:08.790Z,2.40
2023-01-08T04:26:36.832Z,3.60
2023-01-08T04:29:05.223Z,1.60
2023-01-08T04:31:33.711Z,2.00
2023-01-08T04:34:03.130Z,2.40
2023-01-08T04:36:31.268Z,1.80
2023-01-08T04:38:59.332Z,1.80
2023-01-08T04:41:27.426Z,2.67
2023-01-08T04:43:55.493Z,1.30
2023-01-08T04:46:23.677Z,2.93
2023-01-08T04:48:51.823Z,2.50
2023-01-08T04:51:21.672Z,2.10
2023-01-08T04:53:50.027Z,2.50
2023-01-08T04:56:18.097Z,1.50
2023-01-08T04:58:46.201Z,1.53
2023-01-08T05:01:21.256Z,4.37
2023-01-08T05:03:49.852Z,2.60
2023-01-08T05:06:17.979Z,1.47
2023-01-08T05:08:47.452Z,2.23
2023-01-08T05:11:15.557Z,2.87
2023-01-08T05:13:43.661Z,2.90
2023-01-08T05:16:11.819Z,3.27
2023-01-08T05:18:40.019Z,3.00
2023-01-08T05:21:08.138Z,1.83
2023-01-08T05:23:36.283Z,2.43
2023-01-08T05:26:07.564Z,3.10
2023-01-08T05:28:36.001Z,3.03
2023-01-08T05:31:04.137Z,3.50
2023-01-08T05:33:32.736Z,2.30
2023-01-08T05:36:00.851Z,3.73
2023-01-08T05:38:28.971Z,3.10
2023-01-08T05:40:57.043Z,2.83
2023-01-08T05:43:26.698Z,1.30
2023-01-08T05:45:54.832Z,3.20
2023-01-08T05:48:22.932Z,2.23
2023-01-08T05:50:51.214Z,1.97
2023-01-08T05:53:19.912Z,1.30
2023-01-08T05:55:48.110Z,1.50
2023-01-08T05:58:19.090Z,1.20
2023-01-08T06:00:48.554Z,1.30
2023-01-08T06:03:16.592Z,1.50
2023-01-08T06:05:44.803Z,1.50
2023-01-08T06:08:12.961Z,2.13
2023-01-08T06:10:41.175Z,1.70
2023-01-08T06:13:09.514Z,1.20
2023-01-08T06:15:39.133Z,1.40
2023-01-08T06:18:08.988Z,1.60
2023-01-08T06:20:37.193Z,1.87
2023-01-08T06:23:05.277Z,2.33
2023-01-08T06:25:33.407Z,1.70
2023-01-08T06:28:01.528Z,2.30
2023-01-08T06:30:29.642Z,1.63
2023-01-08T06:32:57.984Z,1.23
2023-01-08T06:35:28.189Z,1.37
2023-01-08T06:37:56.632Z,1.80
2023-01-08T06:40:25.075Z,1.80
2023-01-08T06:42:53.631Z,2.37
2023-01-08T06:45:22.025Z,2.27
2023-01-08T06:47:50.169Z,1.60
2023-01-08T06:50:18.222Z,1.60
2023-01-08T06:52:54.035Z,1.00
2023-01-08T06:55:22.405Z,1.30
2023-01-08T06:57:54.198Z,1.53
2023-01-08T07:00:27.318Z,2.87
2023-01-08T07:02:55.671Z,2.10
2023-01-08T07:05:24.569Z,1.50
2023-01-08T07:07:54.378Z,2.23
2023-01-08T07:10:22.611Z,3.17
2023-01-08T07:12:50.708Z,2.10
2023-01-08T07:15:21.883Z,1.10
2023-01-08T07:17:51.274Z,1.50
2023-01-08T07:20:19.473Z,0.87
2023-01-08T07:22:47.574Z,1.13
2023-01-08T07:25:17.221Z,0.90
2023-01-08T07:27:45.315Z,0.90
2023-01-08T07:30:28.659Z,1.00
2023-01-08T07:33:01.156Z,0.80
2023-01-08T07:35:29.451Z,1.50
2023-01-08T07:37:57.547Z,0.87
2023-01-08T07:40:27.040Z,1.10
2023-01-08T07:43:02.622Z,1.00
2023-01-08T07:45:31.293Z,1.10
2023-01-08T07:47:59.978Z,1.00
2023-01-08T07:50:28.882Z,0.90
2023-01-08T07:52:58.984Z,1.13
2023-01-08T07:55:29.540Z,1.17
2023-01-08T07:57:59.643Z,0.67
2023-01-08T08:00:28.287Z,0.63
2023-01-08T08:02:56.602Z,0.87
2023-01-08T08:09:44.418Z,0.80
2023-01-08T08:12:14.326Z,1.20
2023-01-08T08:14:42.411Z,0.73
2023-01-08T08:17:11.646Z,1.10
2023-01-08T08:19:41.603Z,1.30
2023-01-08T08:22:09.859Z,1.10
2023-01-08T08:24:38.015Z,1.00
2023-01-08T08:27:06.263Z,0.87
2023-01-08T08:29:35.791Z,1.30
2023-01-08T08:32:03.908Z,1.10
2023-01-08T08:34:32.018Z,0.87
2023-01-08T08:37:00.107Z,0.73
2023-01-08T08:39:28.244Z,1.10
2023-01-08T08:41:56.391Z,0.97
2023-01-08T08:44:24.477Z,0.90
2023-01-08T08:46:53.985Z,1.00
2023-01-08T08:49:22.088Z,0.67
2023-01-08T08:51:50.148Z,0.70
2023-01-08T08:54:18.283Z,0.87
2023-01-08T08:56:46.345Z,0.80
2023-01-08T08:59:14.580Z,1.43
2023-01-08T09:01:42.863Z,1.10
2023-01-08T09:04:12.469Z,0.80
2023-01-08T09:06:40.560Z,1.50
2023-01-08T09:09:08.584Z,1.37
2023-01-08T09:11:36.851Z,1.33
2023-01-08T09:14:04.951Z,1.30
2023-01-08T09:16:33.517Z,1.30
2023-01-08T09:19:01.632Z,1.40
2023-01-08T09:21:31.121Z,0.90
2023-01-08T09:23:59.204Z,1.17
2023-01-08T09:26:28.714Z,1.43
2023-01-08T09:28:57.161Z,1.33
2023-01-08T09:31:25.470Z,2.07
2023-01-08T09:33:53.684Z,3.67
2023-01-08T09:36:21.792Z,1.40
2023-01-08T09:38:51.272Z,2.07
2023-01-08T09:41:22.817Z,1.60
2023-01-08T09:43:57.207Z,1.03
2023-01-08T09:46:28.508Z,1.40
2023-01-08T09:48:59.226Z,1.23
2023-01-08T09:51:34.860Z,1.27
2023-01-08T09:54:05.886Z,1.00
2023-01-08T09:56:35.843Z,1.30
2023-01-08T09:59:05.733Z,1.23
2023-01-08T10:01:38.991Z,0.97
2023-01-08T10:04:08.593Z,1.10
2023-01-08T10:06:36.712Z,1.13
2023-01-08T10:09:09.167Z,1.13
2023-01-08T10:11:42.417Z,1.00
2023-01-08T10:14:20.862Z,1.20
2023-01-08T10:16:51.882Z,1.47
2023-01-08T10:19:19.935Z,0.93
2023-01-08T10:21:48.713Z,1.37
2023-01-08T10:24:19.367Z,1.30
2023-01-08T10:26:48.818Z,1.17
2023-01-08T10:29:19.168Z,1.27
2023-01-08T10:31:50.159Z,1.80
2023-01-08T10:34:27.913Z,1.50
2023-01-08T10:36:57.172Z,1.63
2023-01-08T10:39:28.646Z,1.43
2023-01-08T10:42:04.047Z,2.47
2023-01-08T10:44:33.948Z,3.00
2023-01-08T10:47:03.671Z,2.50
2023-01-08T10:49:35.445Z,2.57
2023-01-08T10:52:03.634Z,3.07
2023-01-08T10:54:36.736Z,2.73
2023-01-08T10:57:20.106Z,1.77
2023-01-08T10:59:48.277Z,3.90
2023-01-08T11:02:23.401Z,2.40
2023-01-08T11:04:53.229Z,1.60
2023-01-08T11:07:24.560Z,2.67
2023-01-08T11:09:54.600Z,1.67
2023-01-08T11:12:36.795Z,2.20
2023-01-08T11:15:07.225Z,1.80
2023-01-08T11:17:35.906Z,1.10
2023-01-08T11:20:20.955Z,1.70
2023-01-08T11:22:49.076Z,1.30
2023-01-08T11:25:26.644Z,1.23
2023-01-08T11:27:56.028Z,1.47
2023-01-08T11:30:27.395Z,1.30
2023-01-08T11:33:02.813Z,1.10
2023-01-08T11:35:34.524Z,1.20
2023-01-08T11:38:03.972Z,1.60
2023-01-08T11:40:43.260Z,1.00
2023-01-08T11:43:22.360Z,1.00
2023-01-08T11:46:12.834Z,1.10
2023-01-08T11:48:59.181Z,0.70
2023-01-08T11:51:45.182Z,0.70
2023-01-08T11:54:26.942Z,0.87
2023-01-08T11:57:09.663Z,1.20
2023-01-08T11:59:50.528Z,0.47
2023-01-08T12:02:30.034Z,1.00
2023-01-08T12:05:23.914Z,0.80
2023-01-08T12:08:02.117Z,0.70
2023-01-08T12:10:45.139Z,0.70
2023-01-08T12:13:35.140Z,0.57
2023-01-08T12:16:12.740Z,0.50
2023-01-08T12:19:01.709Z,0.60
2023-01-08T12:21:33.653Z,0.50
2023-01-08T12:24:21.555Z,0.53
2023-01-08T12:27:01.096Z,0.40
2023-01-08T12:29:50.968Z,0.43
2023-01-08T12:32:25.548Z,0.63
2023-01-08T12:34:59.767Z,1.00
2023-01-08T12:37:32.357Z,0.70
2023-01-08T12:40:07.633Z,0.60
2023-01-08T12:42:39.761Z,0.80
2023-01-08T12:45:17.955Z,0.53
2023-01-08T12:47:49.950Z,0.73
2023-01-08T12:50:28.135Z,1.23
2023-01-08T12:53:04.847Z,0.50
2023-01-08T12:55:42.530Z,1.20
2023-01-08T12:58:20.544Z,1.00
2023-01-08T13:00:57.814Z,0.80
2023-01-08T13:03:29.492Z,0.90
2023-01-08T13:06:12.739Z,1.00
2023-01-08T13:08:42.993Z,1.47
2023-01-08T13:11:11.376Z,0.80
2023-01-08T13:13:44.361Z,0.97
2023-01-08T13:16:24.531Z,0.87
2023-01-08T13:18:54.803Z,1.07
2023-01-08T13:21:37.961Z,1.83
2023-01-08T13:24:21.044Z,0.60
2023-01-08T13:26:49.158Z,0.77
2023-01-08T13:29:40.480Z,1.10
2023-01-08T13:32:36.011Z,0.70
2023-01-08T13:35:25.523Z,1.10
2023-01-08T13:38:06.468Z,0.90
2023-01-08T13:40:53.768Z,0.90
2023-01-08T13:43:23.991Z,0.80
2023-01-08T13:46:08.995Z,0.80
2023-01-08T13:48:41.406Z,0.87
2023-01-08T13:51:30.845Z,0.70
2023-01-08T13:54:06.554Z,1.20
2023-01-08T13:56:34.745Z,0.83
2023-01-08T13:59:03.557Z,0.73
2023-01-08T14:01:31.663Z,1.00
2023-01-08T14:04:01.283Z,0.83
2023-01-08T14:06:34.954Z,0.87
2023-01-08T14:09:05.277Z,0.80
2023-01-08T14:11:39.595Z,0.90
2023-01-08T14:14:11.631Z,0.93
2023-01-08T14:16:41.001Z,0.83
2023-01-08T14:19:16.385Z,0.80
2023-01-08T14:21:51.043Z,0.73
2023-01-08T14:24:21.340Z,0.87
2023-01-08T14:26:54.223Z,0.80
2023-01-08T14:29:24.313Z,0.70
2023-01-08T14:31:54.534Z,1.00
2023-01-08T14:34:26.715Z,1.00
2023-01-08T14:36:56.358Z,0.90
2023-01-08T14:39:25.995Z,0.80
2023-01-08T14:42:14.213Z,0.90
2023-01-08T14:44:46.051Z,1.20
2023-01-08T14:47:20.321Z,1.00
2023-01-08T14:49:54.483Z,1.00
2023-01-08T14:52:23.235Z,1.07
2023-01-08T14:54:54.985Z,0.90
2023-01-08T14:57:24.349Z,1.00
2023-01-08T14:59:58.051Z,1.03
2023-01-08T15:02:30.546Z,1.10
2023-01-08T15:05:17.983Z,1.50
2023-01-08T15:08:01.096Z,1.20
2023-01-08T15:10:42.858Z,0.60
2023-01-08T15:13:24.227Z,1.40
2023-01-08T15:16:01.032Z,0.93
2023-01-08T15:18:29.343Z,1.00
2023-01-08T15:20:59.188Z,0.83
2023-01-08T15:23:39.101Z,0.80
2023-01-08T15:26:11.609Z,0.80
2023-01-08T15:28:45.079Z,1.70
2023-01-08T15:31:13.247Z,1.10
2023-01-08T15:33:41.322Z,0.63
2023-01-08T15:36:11.398Z,1.10
2023-01-08T15:38:39.960Z,2.07
2023-01-08T15:41:11.206Z,1.20
2023-01-08T15:43:39.538Z,1.50
2023-01-08T15:46:11.325Z,1.30
2023-01-08T15:48:40.890Z,2.90
2023-01-08T15:51:11.495Z,1.80
2023-01-08T15:53:39.954Z,2.20
2023-01-08T15:56:08.767Z,2.47
2023-01-08T15:58:36.922Z,2.17
2023-01-08T16:01:05.260Z,2.37
2023-01-08T16:03:33.538Z,2.20
2023-01-08T16:06:01.811Z,1.50
2023-01-08T16:08:31.606Z,1.00
2023-01-08T16:10:59.822Z,1.30
2023-01-08T16:13:27.995Z,1.33
2023-01-08T16:15:56.309Z,1.40
2023-01-08T16:18:26.738Z,1.87
2023-01-08T16:21:01.769Z,0.97
2023-01-08T16:23:31.255Z,1.20
2023-01-08T16:25:59.416Z,1.33
2023-01-08T16:28:27.520Z,1.77
2023-01-08T16:30:55.727Z,1.80
2023-01-08T16:33:24.563Z,2.17
2023-01-08T16:35:58.051Z,1.63
2023-01-08T16:38:27.033Z,2.00
2023-01-08T16:40:57.652Z,2.43
2023-01-08T16:43:26.462Z,2.10
2023-01-08T16:45:55.247Z,2.13
2023-01-08T16:48:24.746Z,1.50
2023-01-08T16:50:53.053Z,1.40
2023-01-08T16:53:21.966Z,2.23
2023-01-08T16:55:50.141Z,2.20
2023-01-08T16:58:19.729Z,3.60
2023-01-08T17:00:48.469Z,4.03
2023-01-08T17:03:16.693Z,2.80
2023-01-08T17:05:44.853Z,4.87
2023-01-08T17:08:15.878Z,1.67
2023-01-08T17:10:45.016Z,1.20
2023-01-08T17:13:13.498Z,1.23
2023-01-08T17:15:42.944Z,1.30
2023-01-08T17:18:14.512Z,1.23
2023-01-08T17:20:42.666Z,1.20
2023-01-08T17:23:10.762Z,1.37
2023-01-08T17:25:41.502Z,1.50
2023-01-08T17:28:09.605Z,1.03
2023-01-08T17:30:37.692Z,1.33
2023-01-08T17:33:07.155Z,1.23
2023-01-08T17:35:35.536Z,1.17
2023-01-08T17:38:03.648Z,1.20
2023-01-08T17:40:31.800Z,2.27
2023-01-08T17:42:59.910Z,2.30
2023-01-08T17:45:28.038Z,4.33
2023-01-08T17:47:56.183Z,2.17
2023-01-08T17:50:25.610Z,3.23
2023-01-08T17:52:53.781Z,1.40
2023-01-08T17:55:21.872Z,1.40
2023-01-08T17:57:50.037Z,1.80
2023-01-08T18:00:19.323Z,2.17
2023-01-08T18:02:47.466Z,1.20
2023-01-08T18:05:15.799Z,1.43
2023-01-08T18:07:45.310Z,1.57
2023-01-08T18:10:14.088Z,1.27
2023-01-08T18:12:42.228Z,1.30
2023-01-08T18:15:11.317Z,2.10
2023-01-08T18:17:39.820Z,1.40
2023-01-08T18:20:09.349Z,1.97
2023-01-08T18:22:37.400Z,1.70
2023-01-08T18:25:07.606Z,2.07
2023-01-08T18:27:36.149Z,3.30
2023-01-08T18:30:06.787Z,1.40
2023-01-08T18:32:36.148Z,1.00
2023-01-08T18:35:04.626Z,1.93
2023-01-08T18:37:34.114Z,1.50
2023-01-08T18:40:02.252Z,1.30
2023-01-08T18:42:32.807Z,1.30
2023-01-08T18:45:02.549Z,1.40
2023-01-08T18:47:30.805Z,1.80
2023-01-08T18:50:03.106Z,1.00
2023-01-08T18:52:31.678Z,1.40
2023-01-08T18:54:59.860Z,1.23
2023-01-08T18:57:28.389Z,1.47
2023-01-08T18:59:58.014Z,1.50
2023-01-08T19:02:29.155Z,1.60
2023-01-08T19:04:57.345Z,2.03
2023-01-08T19:07:25.738Z,1.73
2023-01-08T19:09:54.119Z,1.40
2023-01-08T19:12:22.303Z,1.20
2023-01-08T19:14:50.599Z,1.50
2023-01-08T19:17:23.467Z,1.40
2023-01-08T19:19:52.034Z,1.40
2023-01-08T19:22:22.478Z,1.10
2023-01-08T19:24:50.536Z,1.40
2023-01-08T19:27:21.747Z,2.20
2023-01-08T19:29:49.898Z,1.67
2023-01-08T19:32:19.503Z,1.43
2023-01-08T19:34:48.159Z,1.30
2023-01-08T19:37:16.487Z,1.90
2023-01-08T19:39:44.639Z,1.40
2023-01-08T19:42:30.605Z,3.27
2023-01-08T19:44:58.953Z,1.70
2023-01-08T19:47:29.910Z,1.40
2023-01-08T19:49:58.007Z,1.87
2023-01-08T19:52:26.115Z,1.33
2023-01-08T19:54:55.190Z,1.80
2023-01-08T19:57:23.357Z,1.60
2023-01-08T19:59:51.547Z,1.60
2023-01-08T20:02:19.857Z,2.13
2023-01-08T20:04:49.346Z,2.03
2023-01-08T20:07:17.514Z,1.53
2023-01-08T20:09:45.692Z,1.70
2023-01-08T20:12:14.854Z,1.43
2023-01-08T20:14:42.912Z,1.17
2023-01-08T20:17:11.796Z,1.40
2023-01-08T20:19:39.912Z,2.13
2023-01-08T20:22:09.397Z,1.90
2023-01-08T20:24:39.813Z,1.60
2023-01-08T20:27:08.412Z,2.50
2023-01-08T20:29:37.888Z,1.70
2023-01-08T20:32:06.626Z,1.60
2023-01-08T20:34:35.172Z,1.83
2023-01-08T20:37:05.894Z,2.03
2023-01-08T20:39:35.399Z,1.50
2023-01-08T20:42:05.159Z,1.30
2023-01-08T20:44:33.389Z,1.60
2023-01-08T20:47:02.218Z,1.50
2023-01-08T20:49:30.512Z,1.37
2023-01-08T20:52:00.184Z,1.50
2023-01-08T20:54:30.214Z,1.90
2023-01-08T20:57:02.735Z,1.50
2023-01-08T20:59:31.121Z,1.47
2023-01-08T21:01:59.487Z,1.90
2023-01-08T21:04:27.677Z,1.53
2023-01-08T21:06:57.386Z,1.43
2023-01-08T21:09:28.451Z,1.20
2023-01-08T21:11:56.598Z,1.87
2023-01-08T21:14:31.648Z,1.37
2023-01-08T21:16:59.777Z,1.67
2023-01-08T21:19:27.904Z,1.33
2023-01-08T21:21:56.068Z,1.83
2023-01-08T21:24:24.205Z,1.07
2023-01-08T21:26:52.437Z,1.40
2023-01-08T21:29:23.197Z,1.27
2023-01-08T21:31:52.709Z,2.10
2023-01-08T21:34:21.564Z,1.80
2023-01-08T21:36:49.649Z,2.13
2023-01-08T21:47:01.969Z,1.63
2023-01-08T21:49:30.395Z,1.63
2023-01-08T21:52:15.915Z,1.40
2023-01-08T21:54:44.087Z,1.30
2023-01-08T21:57:12.240Z,1.40
2023-01-08T21:59:40.399Z,1.67
2023-01-08T22:02:15.953Z,1.00
2023-01-08T22:04:44.288Z,1.77
2023-01-08T22:07:12.759Z,1.70
2023-01-08T22:09:40.960Z,1.17
2023-01-08T22:12:09.398Z,0.90
2023-01-08T22:14:37.685Z,2.17
2023-01-08T22:17:08.473Z,1.67
2023-01-08T22:19:39.037Z,1.60
2023-01-08T22:22:11.261Z,1.60
2023-01-08T22:24:39.809Z,2.73
2023-01-08T22:27:08.949Z,2.50
2023-01-08T22:29:38.249Z,1.97
2023-01-08T22:32:06.579Z,1.60
2023-01-08T22:34:36.090Z,1.40
2023-01-08T22:37:05.564Z,1.83
2023-01-08T22:39:33.687Z,1.37
2023-01-08T22:42:02.013Z,1.70
2023-01-08T22:44:30.184Z,1.90
2023-01-08T22:54:31.281Z,1.70
2023-01-08T22:56:59.425Z,1.50
2023-01-08T22:59:27.508Z,2.27
2023-01-08T23:01:55.702Z,2.33
2023-01-08T23:04:23.838Z,1.80
2023-01-08T23:06:51.940Z,1.37
2023-01-08T23:09:20.111Z,1.87
2023-01-08T23:11:49.659Z,1.20
2023-01-08T23:14:18.028Z,1.40
2023-01-08T23:16:46.178Z,1.60
2023-01-08T23:19:14.263Z,1.60
2023-01-08T23:21:42.318Z,1.80
2023-01-08T23:24:12.951Z,1.30
2023-01-08T23:26:41.042Z,1.30
2023-01-08T23:29:10.667Z,1.03
2023-01-08T23:31:38.887Z,0.90
2023-01-08T23:34:07.880Z,0.83
2023-01-08T23:36:36.047Z,0.70
2023-01-08T23:39:05.342Z,0.80
2023-01-08T23:41:35.089Z,0.53
2023-01-08T23:44:06.386Z,0.70
2023-01-08T23:46:36.212Z,0.50
2023-01-08T23:49:04.712Z,0.40
2023-01-08T23:51:32.800Z,0.40
2023-01-08T23:54:00.903Z,0.60
2023-01-08T23:56:29.188Z,0.50
2023-01-08T23:58:58.411Z,1.07
